createdAt,value
2018-12-22T00:00:44.100Z,98382.78
2018-12-22T00:03:13.975Z,98376.91
2018-12-22T00:05:44.393Z,98389.26
2018-12-22T00:08:14.098Z,98380.26
2018-12-22T00:10:44.265Z,98367.03
2018-12-22T00:13:14.259Z,98367.17
2018-12-22T00:15:43.997Z,98372.00
2018-12-22T00:18:13.455Z,98370.83
2018-12-22T00:20:43.289Z,98374.68
2018-12-22T00:23:13.011Z,98364.55
2018-12-22T00:25:42.789Z,98376.59
2018-12-22T00:28:12.525Z,98375.52
2018-12-22T00:30:42.244Z,98380.48
2018-12-22T00:33:17.841Z,98385.79
2018-12-22T00:35:49.123Z,98383.83
2018-12-22T00:38:19.326Z,98384.57
2018-12-22T00:40:49.335Z,98381.77
2018-12-22T00:44:43.595Z,98388.33
2018-12-22T00:47:14.140Z,98405.35
2018-12-22T00:49:44.263Z,98397.52
2018-12-22T00:52:14.269Z,98400.67
2018-12-22T00:54:43.754Z,98405.72
2018-12-22T00:57:14.119Z,98408.45
2018-12-22T00:59:44.027Z,98418.40
2018-12-22T01:02:13.982Z,98412.38
2018-12-22T01:04:44.056Z,98405.30
2018-12-22T01:07:13.870Z,98411.35
2018-12-22T01:09:43.917Z,98406.84
2018-12-22T01:12:13.907Z,98402.53
2018-12-22T01:14:43.848Z,98407.41
2018-12-22T01:17:14.615Z,98406.56
2018-12-22T01:19:44.515Z,98408.58
2018-12-22T01:22:14.221Z,98378.62
2018-12-22T01:24:44.727Z,98407.46
2018-12-22T01:27:14.469Z,98405.31
2018-12-22T01:29:44.167Z,98405.30
2018-12-22T01:32:14.487Z,98420.25
2018-12-22T01:34:44.219Z,98416.78
2018-12-22T01:37:13.714Z,98417.47
2018-12-22T01:39:43.646Z,98404.86
2018-12-22T01:42:13.555Z,98408.84
2018-12-22T01:44:43.135Z,98407.59
2018-12-22T01:47:13.287Z,98420.67
2018-12-22T01:49:42.814Z,98419.30
2018-12-22T01:52:12.434Z,98435.33
2018-12-22T01:54:42.463Z,98430.59
2018-12-22T01:57:12.454Z,98428.83
2018-12-22T01:59:42.322Z,98422.54
2018-12-22T02:02:12.492Z,98408.00
2018-12-22T02:04:42.139Z,98421.92
2018-12-22T02:07:12.073Z,98423.28
2018-12-22T02:09:41.596Z,98434.13
2018-12-22T02:12:11.679Z,98436.48
2018-12-22T02:14:41.458Z,98460.38
2018-12-22T02:17:11.307Z,98428.88
2018-12-22T02:19:40.964Z,98436.34
2018-12-22T02:22:11.817Z,98435.17
2018-12-22T02:24:41.856Z,98412.89
2018-12-22T02:27:11.603Z,98404.75
2018-12-22T02:29:41.032Z,98439.95
2018-12-22T02:32:10.362Z,98433.34
2018-12-22T02:34:40.124Z,98447.84
2018-12-22T02:37:10.062Z,98435.41
2018-12-22T02:39:39.871Z,98440.47
2018-12-22T02:42:09.640Z,98433.86
2018-12-22T02:44:39.358Z,98416.52
2018-12-22T02:47:09.572Z,98433.34
2018-12-22T02:49:39.326Z,98432.92
2018-12-22T02:52:08.968Z,98448.64
2018-12-22T02:54:39.189Z,98452.91
2018-12-22T02:57:09.158Z,98448.75
2018-12-22T02:59:38.949Z,98451.66
2018-12-22T03:02:08.780Z,98448.50
2018-12-22T03:04:38.443Z,98441.61
2018-12-22T03:07:08.211Z,98445.78
2018-12-22T03:09:38.663Z,98439.69
2018-12-22T03:12:09.556Z,98433.72
2018-12-22T03:14:39.783Z,98440.53
2018-12-22T03:17:10.428Z,98432.41
2018-12-22T03:19:40.005Z,98431.80
2018-12-22T03:22:09.664Z,98436.53
2018-12-22T03:24:39.213Z,98436.99
2018-12-22T03:27:09.299Z,98439.10
2018-12-22T03:29:39.961Z,98441.31
2018-12-22T03:32:09.392Z,98438.45
2018-12-22T03:34:39.876Z,98439.81
2018-12-22T03:37:09.822Z,98427.80
2018-12-22T03:39:39.473Z,98434.97
2018-12-22T03:42:09.187Z,98421.33
2018-12-22T03:44:38.976Z,98424.94
2018-12-22T03:47:09.080Z,98417.57
2018-12-22T03:49:38.628Z,98425.96
2018-12-22T03:52:08.308Z,98444.88
2018-12-22T03:54:38.965Z,98438.52
2018-12-22T03:57:08.813Z,98368.23
2018-12-22T03:59:41.345Z,98446.00
2018-12-22T04:02:11.544Z,98450.67
2018-12-22T04:04:41.832Z,98446.22
2018-12-22T04:07:12.109Z,98445.59
2018-12-22T04:09:42.697Z,98455.17
2018-12-22T04:12:12.605Z,98468.58
2018-12-22T04:14:43.374Z,98471.95
2018-12-22T04:17:13.728Z,98460.19
2018-12-22T04:19:44.151Z,98460.63
2018-12-22T04:22:14.262Z,98458.30
2018-12-22T04:24:44.261Z,98462.23
2018-12-22T04:27:14.265Z,98360.59
2018-12-22T04:29:44.697Z,98460.07
2018-12-22T04:32:14.747Z,98446.66
2018-12-22T04:34:44.185Z,98359.51
2018-12-22T04:37:13.833Z,98445.57
2018-12-22T04:39:43.637Z,98437.47
2018-12-22T04:42:13.723Z,98448.10
2018-12-22T04:44:43.853Z,98445.80
2018-12-22T04:47:13.933Z,98453.48
2018-12-22T04:49:43.478Z,98441.20
2018-12-22T04:52:13.388Z,98440.75
2018-12-22T04:54:43.405Z,98447.31
2018-12-22T04:57:12.917Z,98434.75
2018-12-22T04:59:43.166Z,98437.09
2018-12-22T05:02:13.825Z,98432.02
2018-12-22T05:04:43.264Z,98434.12
2018-12-22T05:07:13.187Z,98434.53
2018-12-22T05:09:42.930Z,98445.03
2018-12-22T05:12:14.351Z,98435.27
2018-12-22T05:14:43.864Z,98435.66
2018-12-22T05:17:13.574Z,98443.23
2018-12-22T05:19:43.408Z,98444.05
2018-12-22T05:22:14.155Z,98445.01
2018-12-22T05:24:43.961Z,98436.64
2018-12-22T05:27:13.717Z,98434.92
2018-12-22T05:29:51.583Z,98431.56
2018-12-22T05:32:16.470Z,98433.73
2018-12-22T05:34:46.290Z,98437.95
2018-12-22T05:37:17.653Z,98448.69
2018-12-22T05:39:47.274Z,98380.44
2018-12-22T05:42:16.896Z,98443.44
2018-12-22T05:44:46.690Z,98367.48
2018-12-22T05:47:16.388Z,98444.86
2018-12-22T05:49:46.150Z,98445.71
2018-12-22T05:52:15.683Z,98439.09
2018-12-22T05:54:45.159Z,98438.87
2018-12-22T05:57:15.243Z,98441.48
2018-12-22T05:59:44.827Z,98447.30
2018-12-22T06:02:16.258Z,98437.59
2018-12-22T06:04:47.244Z,98354.20
2018-12-22T06:07:16.881Z,98429.91
2018-12-22T06:09:46.987Z,98436.80
2018-12-22T06:12:16.875Z,98433.34
2018-12-22T06:14:46.364Z,98351.30
2018-12-22T06:17:16.389Z,98424.32
2018-12-22T06:19:46.362Z,98426.48
2018-12-22T06:22:16.096Z,98434.36
2018-12-22T06:24:45.739Z,98422.70
2018-12-22T06:27:15.695Z,98423.77
2018-12-22T06:29:45.471Z,98427.09
2018-12-22T06:32:15.614Z,98423.16
2018-12-22T06:34:45.612Z,98413.17
2018-12-22T06:37:15.460Z,98415.28
2018-12-22T06:39:46.005Z,98404.96
2018-12-22T06:42:16.191Z,98397.61
2018-12-22T06:44:45.658Z,98402.47
2018-12-22T06:47:16.715Z,98384.55
2018-12-22T06:49:46.747Z,98318.17
2018-12-22T06:52:16.942Z,98404.16
2018-12-22T06:54:46.879Z,98407.32
2018-12-22T06:57:17.034Z,98400.75
2018-12-22T06:59:46.798Z,98409.19
2018-12-22T07:02:17.037Z,98393.39
2018-12-22T07:04:47.826Z,98408.52
2018-12-22T07:07:17.231Z,98411.30
2018-12-22T07:09:47.069Z,98404.46
2018-12-22T07:12:17.369Z,98403.38
2018-12-22T07:14:47.065Z,98393.16
2018-12-22T07:17:17.286Z,98387.41
2018-12-22T07:19:47.548Z,98394.98
2018-12-22T07:22:18.014Z,98378.20
2018-12-22T07:24:47.809Z,98385.04
2018-12-22T07:27:17.889Z,98396.67
2018-12-22T07:29:48.181Z,98382.59
2018-12-22T07:32:18.618Z,98294.34
2018-12-22T07:34:48.875Z,98395.08
2018-12-22T07:37:18.870Z,98389.84
2018-12-22T07:39:49.339Z,98410.25
2018-12-22T07:42:18.907Z,98406.95
2018-12-22T07:44:49.827Z,98408.48
2018-12-22T07:47:19.516Z,98421.48
2018-12-22T07:49:48.968Z,98404.94
2018-12-22T07:52:19.412Z,98408.89
2018-12-22T07:54:49.561Z,98430.52
2018-12-22T07:57:19.027Z,98425.59
2018-12-22T07:59:50.239Z,98430.18
2018-12-22T08:02:21.662Z,98430.91
2018-12-22T08:04:52.627Z,98431.55
2018-12-22T08:07:22.577Z,98442.64
2018-12-22T08:09:54.216Z,98443.20
2018-12-22T08:12:23.894Z,98429.80
2018-12-22T08:14:54.244Z,98436.42
2018-12-22T08:17:24.395Z,98438.02
2018-12-22T08:19:57.387Z,98438.80
2018-12-22T08:22:29.618Z,98373.36
2018-12-22T08:25:00.395Z,98447.36
2018-12-22T08:27:30.046Z,98464.66
2018-12-22T08:30:01.088Z,98474.98
2018-12-22T08:32:30.910Z,98494.63
2018-12-22T08:35:02.021Z,98492.23
2018-12-22T08:37:35.503Z,98504.67
2018-12-22T08:40:07.291Z,98503.69
2018-12-22T08:42:37.242Z,98507.83
2018-12-22T08:45:09.054Z,98518.04
2018-12-22T08:47:40.207Z,98545.55
2018-12-22T08:50:11.500Z,98538.50
2018-12-22T08:52:41.359Z,98540.33
2018-12-22T08:55:11.239Z,98543.00
2018-12-22T08:57:41.590Z,98550.64
2018-12-22T09:00:13.474Z,98548.84
2018-12-22T09:02:42.859Z,98564.55
2018-12-22T09:05:12.328Z,98564.16
2018-12-22T09:07:41.984Z,98564.42
2018-12-22T09:10:30.385Z,98567.87
2018-12-22T09:13:05.231Z,98577.83
2018-12-22T09:15:34.825Z,98586.23
2018-12-22T09:18:04.777Z,98572.58
2018-12-22T09:20:34.738Z,98570.67
2018-12-22T09:23:04.820Z,98590.43
2018-12-22T09:25:34.886Z,98590.53
2018-12-22T09:28:04.490Z,98598.77
2018-12-22T09:30:34.090Z,98597.16
2018-12-22T09:33:04.917Z,98602.89
2018-12-22T09:35:35.066Z,98599.46
2018-12-22T09:39:29.440Z,98590.06
2018-12-22T09:42:00.106Z,98591.94
2018-12-22T09:44:29.506Z,98597.33
2018-12-22T09:46:59.425Z,98586.14
2018-12-22T09:49:29.417Z,98602.98
2018-12-22T09:52:01.962Z,98610.05
2018-12-22T09:54:33.769Z,98613.75
2018-12-22T09:57:04.983Z,98618.74
2018-12-22T09:59:35.510Z,98619.90
2018-12-22T10:02:05.906Z,98627.77
2018-12-22T10:04:35.773Z,98625.36
2018-12-22T10:07:05.354Z,98630.40
2018-12-22T10:09:35.523Z,98639.72
2018-12-22T10:12:05.602Z,98546.93
2018-12-22T10:14:37.099Z,98661.42
2018-12-22T10:17:07.510Z,98672.03
2018-12-22T10:19:38.504Z,98654.00
2018-12-22T10:22:08.088Z,98662.48
2018-12-22T10:24:37.546Z,98674.36
2018-12-22T10:27:07.023Z,98674.72
2018-12-22T10:29:36.562Z,98688.30
2018-12-22T10:32:06.620Z,98687.70
2018-12-22T10:34:36.631Z,98698.57
2018-12-22T10:37:06.221Z,98694.11
2018-12-22T10:39:36.575Z,98714.84
2018-12-22T10:42:10.405Z,98718.06
2018-12-22T10:44:43.421Z,98722.67
2018-12-22T10:47:18.609Z,98730.40
2018-12-22T10:49:49.848Z,98735.67
2018-12-22T10:52:22.817Z,98726.67
2018-12-22T10:54:56.421Z,98735.09
2018-12-22T10:57:26.923Z,98734.83
2018-12-22T11:00:00.028Z,98728.86
2018-12-22T11:02:33.001Z,98743.30
2018-12-22T11:05:05.280Z,98749.88
2018-12-22T11:07:36.780Z,98748.84
2018-12-22T11:10:12.509Z,98765.58
2018-12-22T11:12:45.607Z,98775.11
2018-12-22T11:15:16.009Z,98768.03
2018-12-22T11:17:48.178Z,98781.11
2018-12-22T11:20:18.067Z,98775.98
2018-12-22T11:22:49.435Z,98785.06
2018-12-22T11:25:24.272Z,98780.05
2018-12-22T11:27:54.069Z,98787.41
2018-12-22T11:30:37.501Z,98791.77
2018-12-22T11:33:06.964Z,98799.66
2018-12-22T11:35:37.062Z,98803.50
2018-12-22T11:38:09.632Z,98806.77
2018-12-22T11:40:41.282Z,98823.14
2018-12-22T11:43:11.116Z,98829.82
2018-12-22T11:45:40.891Z,98841.75
2018-12-22T11:50:25.361Z,98856.25
2018-12-22T11:52:55.284Z,98869.47
2018-12-22T11:55:26.436Z,98879.67
2018-12-22T11:57:55.914Z,98872.53
2018-12-22T12:00:26.618Z,98891.25
2018-12-22T12:02:56.862Z,98883.90
2018-12-22T12:05:26.630Z,98895.34
2018-12-22T12:07:56.157Z,98904.30
2018-12-22T12:10:25.958Z,98911.44
2018-12-22T12:12:56.015Z,98926.30
2018-12-22T12:15:31.624Z,98924.88
2018-12-22T12:18:28.886Z,98933.26
2018-12-22T12:20:59.422Z,98942.54
2018-12-22T12:23:30.371Z,98971.17
2018-12-22T12:26:01.961Z,98960.68
2018-12-22T12:28:34.374Z,98961.99
2018-12-22T12:31:04.410Z,98971.01
2018-12-22T12:33:34.503Z,98969.66
2018-12-22T12:36:09.838Z,98975.31
2018-12-22T12:38:40.221Z,98979.47
2018-12-22T12:41:11.088Z,98979.64
2018-12-22T12:43:41.409Z,98989.86
2018-12-22T12:46:11.738Z,98997.91
2018-12-22T12:48:42.393Z,98998.64
2018-12-22T12:51:14.940Z,99004.00
2018-12-22T12:53:44.988Z,99021.83
2018-12-22T12:56:15.837Z,99016.72
2018-12-22T12:58:45.714Z,99030.75
2018-12-22T13:01:15.509Z,99031.11
2018-12-22T13:03:46.022Z,99028.34
2018-12-22T13:06:15.783Z,99044.16
2018-12-22T13:08:45.767Z,99046.27
2018-12-22T13:11:16.450Z,99049.22
2018-12-22T13:13:59.273Z,99063.60
2018-12-22T13:16:29.035Z,99061.09
2018-12-22T13:18:58.430Z,99066.30
2018-12-22T13:21:28.277Z,99072.01
2018-12-22T13:23:58.494Z,99083.17
2018-12-22T13:26:36.554Z,99080.47
2018-12-22T13:29:01.413Z,99086.91
2018-12-22T13:31:31.269Z,99094.69
2018-12-22T13:34:00.771Z,99097.72
2018-12-22T13:36:34.465Z,99099.41
2018-12-22T13:39:09.401Z,99100.72
2018-12-22T13:41:39.365Z,99119.94
2018-12-22T13:44:08.852Z,99118.20
2018-12-22T13:46:38.590Z,99117.40
2018-12-22T13:49:08.284Z,99117.35
2018-12-22T13:51:39.001Z,99121.33
2018-12-22T13:54:09.009Z,99125.34
2018-12-22T13:56:39.213Z,99125.77
2018-12-22T13:59:09.669Z,99137.70
2018-12-22T14:01:44.116Z,99144.09
2018-12-22T14:04:14.677Z,99141.47
2018-12-22T14:06:48.423Z,99147.72
2018-12-22T14:09:18.788Z,99145.39
2018-12-22T14:11:48.559Z,99145.53
2018-12-22T14:14:23.876Z,99153.65
2018-12-22T14:16:59.681Z,99150.36
2018-12-22T14:19:29.874Z,99162.45
2018-12-22T14:22:00.101Z,99160.45
2018-12-22T14:24:36.885Z,99167.41
2018-12-22T14:27:07.100Z,99163.13
2018-12-22T14:29:36.540Z,99162.75
2018-12-22T14:32:06.123Z,99160.67
2018-12-22T14:34:47.384Z,99170.45
2018-12-22T14:37:15.081Z,99165.72
2018-12-22T14:39:44.840Z,99177.02
2018-12-22T14:42:16.700Z,99147.65
2018-12-22T14:44:48.018Z,99179.95
2018-12-22T14:47:18.707Z,99184.88
2018-12-22T14:49:48.837Z,99186.14
2018-12-22T14:52:18.398Z,99191.69
2018-12-22T14:54:48.477Z,99187.31
2018-12-22T14:57:18.096Z,99200.06
2018-12-22T14:59:48.106Z,99205.17
2018-12-22T15:02:20.370Z,99206.40
2018-12-22T15:04:50.548Z,99210.92
2018-12-22T15:07:20.702Z,99213.30
2018-12-22T15:09:50.711Z,99206.05
2018-12-22T15:12:20.116Z,99210.55
2018-12-22T15:14:50.168Z,99211.22
2018-12-22T15:17:20.173Z,99212.67
2018-12-22T15:19:51.318Z,99212.42
2018-12-22T15:22:22.516Z,99208.78
2018-12-22T15:24:53.127Z,99213.73
2018-12-22T15:27:23.021Z,99207.93
2018-12-22T15:29:53.867Z,99207.84
2018-12-22T15:32:25.079Z,99208.65
2018-12-22T15:34:56.660Z,99204.00
2018-12-22T15:37:27.453Z,99204.20
2018-12-22T15:39:58.160Z,99199.68
2018-12-22T15:42:27.898Z,99204.07
2018-12-22T15:44:57.911Z,99211.34
2018-12-22T15:47:28.115Z,99216.37
2018-12-22T15:49:57.949Z,99218.04
2018-12-22T15:52:27.837Z,99217.23
2018-12-22T15:54:59.767Z,99136.64
2018-12-22T15:57:29.166Z,99217.77
2018-12-22T15:59:58.592Z,99231.03
2018-12-22T16:02:28.550Z,99233.95
2018-12-22T16:04:58.124Z,99238.30
2018-12-22T16:07:34.823Z,99246.47
2018-12-22T16:10:12.111Z,99253.75
2018-12-22T16:12:42.554Z,99256.16
2018-12-22T16:15:16.274Z,99266.56
2018-12-22T16:17:48.031Z,99269.79
2018-12-22T16:20:18.025Z,99275.61
2018-12-22T16:22:56.382Z,99284.20
2018-12-22T16:25:27.484Z,99224.19
2018-12-22T16:28:05.619Z,99287.29
2018-12-22T16:30:48.450Z,99289.81
2018-12-22T16:33:18.385Z,99294.99
2018-12-22T16:35:51.845Z,99205.77
2018-12-22T16:38:22.837Z,99275.63
2018-12-22T16:40:52.691Z,99273.77
2018-12-22T16:43:23.688Z,99279.17
2018-12-22T16:45:54.704Z,99278.63
2018-12-22T16:48:25.400Z,99279.97
2018-12-22T16:50:56.546Z,99275.14
2018-12-22T16:53:26.374Z,99281.31
2018-12-22T16:55:55.900Z,99297.11
2018-12-22T16:58:36.005Z,99283.83
2018-12-22T17:01:20.210Z,99289.97
2018-12-22T17:03:50.547Z,99307.75
2018-12-22T17:06:21.251Z,99303.70
2018-12-22T17:08:51.493Z,99310.11
2018-12-22T17:11:21.193Z,99317.89
2018-12-22T17:13:51.212Z,99314.30
2018-12-22T17:16:22.347Z,99325.03
2018-12-22T17:18:53.627Z,99324.63
2018-12-22T17:21:27.673Z,99337.52
2018-12-22T17:24:06.858Z,99336.38
2018-12-22T17:26:40.055Z,99335.75
2018-12-22T17:29:11.285Z,99350.98
2018-12-22T17:31:44.587Z,99350.05
2018-12-22T17:34:18.684Z,99355.38
2018-12-22T17:36:50.280Z,99352.13
2018-12-22T17:39:22.243Z,99351.73
2018-12-22T17:41:53.401Z,99358.92
2018-12-22T17:44:25.773Z,99357.98
2018-12-22T17:46:56.790Z,99356.13
2018-12-22T17:49:26.767Z,99352.81
2018-12-22T17:51:57.127Z,99351.91
2018-12-22T17:54:27.038Z,99354.83
2018-12-22T17:56:57.765Z,99356.94
2018-12-22T17:59:28.430Z,99362.38
2018-12-22T18:02:02.271Z,99369.87
2018-12-22T18:04:34.004Z,99378.30
2018-12-22T18:07:05.909Z,99379.57
2018-12-22T18:09:36.721Z,99377.69
2018-12-22T18:12:07.318Z,99392.06
2018-12-22T18:14:38.758Z,99378.73
2018-12-22T18:17:08.826Z,99388.41
2018-12-22T18:19:38.652Z,99383.47
2018-12-22T18:22:08.879Z,99385.72
2018-12-22T18:24:39.983Z,99396.19
2018-12-22T18:27:09.789Z,99395.39
2018-12-22T18:29:40.125Z,99411.91
2018-12-22T18:32:10.508Z,99213.27
2018-12-22T18:34:41.599Z,99411.20
2018-12-22T18:37:12.797Z,99422.35
2018-12-22T18:39:42.990Z,99423.23
2018-12-22T18:42:13.710Z,99421.41
2018-12-22T18:44:45.126Z,99417.19
2018-12-22T18:47:14.728Z,99424.37
2018-12-22T18:49:44.340Z,99428.83
2018-12-22T18:52:15.453Z,99421.68
2018-12-22T18:54:45.721Z,99417.02
2018-12-22T18:57:15.602Z,99421.34
2018-12-22T18:59:45.768Z,99418.12
2018-12-22T19:02:16.290Z,99409.13
2018-12-22T19:04:47.527Z,99406.50
2018-12-22T19:07:17.619Z,99407.14
2018-12-22T19:09:50.125Z,99410.12
2018-12-22T19:12:20.672Z,99399.58
2018-12-22T19:14:54.619Z,99408.95
2018-12-22T19:17:26.409Z,99409.02
2018-12-22T19:19:58.275Z,99404.38
2018-12-22T19:22:31.174Z,99411.74
2018-12-22T19:25:05.406Z,99408.82
2018-12-22T19:27:38.883Z,99413.82
2018-12-22T19:30:09.976Z,99421.08
2018-12-22T19:32:41.105Z,99433.34
2018-12-22T19:35:12.003Z,99435.32
2018-12-22T19:37:42.919Z,99425.24
2018-12-22T19:40:16.529Z,99287.60
2018-12-22T19:42:48.870Z,99438.11
2018-12-22T19:45:20.926Z,99445.43
2018-12-22T19:47:52.428Z,99450.37
2018-12-22T19:50:24.046Z,99451.48
2018-12-22T19:52:55.993Z,99458.53
2018-12-22T19:55:26.477Z,99454.44
2018-12-22T19:58:03.812Z,99457.52
2018-12-22T20:00:40.435Z,99361.39
2018-12-22T20:03:13.358Z,99461.13
2018-12-22T20:05:43.218Z,99454.36
2018-12-22T20:08:17.686Z,99449.70
2018-12-22T20:10:48.642Z,99464.41
2018-12-22T20:13:20.672Z,99454.13
2018-12-22T20:15:51.434Z,99458.87
2018-12-22T20:18:29.947Z,99459.71
2018-12-22T20:21:01.929Z,99468.68
2018-12-22T20:23:34.746Z,99469.98
2018-12-22T20:26:04.894Z,99475.73
2018-12-22T20:28:41.011Z,99468.08
2018-12-22T20:31:10.997Z,99468.20
2018-12-22T20:33:45.604Z,99474.66
2018-12-22T20:36:19.622Z,99477.41
2018-12-22T20:38:50.497Z,99491.78
2018-12-22T20:41:20.305Z,99482.67
2018-12-22T20:43:50.980Z,99474.95
2018-12-22T20:46:26.795Z,99481.95
2018-12-22T20:48:56.926Z,99491.63
2018-12-22T20:51:28.166Z,99487.78
2018-12-22T20:54:04.076Z,99496.27
2018-12-22T20:56:34.946Z,99505.73
2018-12-22T20:59:04.636Z,99504.05
2018-12-22T21:01:35.441Z,99508.30
2018-12-22T21:04:08.047Z,99514.92
2018-12-22T21:06:39.053Z,99522.59
2018-12-22T21:09:09.838Z,99524.34
2018-12-22T21:11:40.152Z,99527.45
2018-12-22T21:14:10.842Z,99534.58
2018-12-22T21:16:41.208Z,99534.81
2018-12-22T21:19:12.267Z,99538.20
2018-12-22T21:21:41.993Z,99543.55
2018-12-22T21:24:12.143Z,99544.75
2018-12-22T21:26:43.207Z,99463.50
2018-12-22T21:29:13.507Z,99550.90
2018-12-22T21:31:43.614Z,99546.28
2018-12-22T21:34:14.413Z,99548.48
2018-12-22T21:36:49.379Z,99547.41
2018-12-22T21:39:19.424Z,99560.30
2018-12-22T21:41:49.667Z,99562.30
2018-12-22T21:44:19.226Z,99565.23
2018-12-22T21:46:50.339Z,99568.84
2018-12-22T21:49:20.506Z,99576.81
2018-12-22T21:51:50.240Z,99579.42
2018-12-22T21:54:20.682Z,99590.67
2018-12-22T21:56:50.490Z,99586.75
2018-12-22T21:59:22.602Z,99587.55
2018-12-22T22:01:52.123Z,99596.61
2018-12-22T22:04:22.570Z,99601.53
2018-12-22T22:06:54.012Z,99593.39
2018-12-22T22:09:24.549Z,99599.09
2018-12-22T22:11:55.374Z,99602.44
2018-12-22T22:14:28.029Z,99605.64
2018-12-22T22:17:06.002Z,99614.11
2018-12-22T22:19:40.259Z,99611.38
2018-12-22T22:22:11.762Z,99613.22
2018-12-22T22:24:42.469Z,99608.06
2018-12-22T22:27:13.142Z,99619.04
2018-12-22T22:29:43.593Z,99626.31
2018-12-22T22:32:14.498Z,99624.08
2018-12-22T22:34:45.944Z,99627.09
2018-12-22T22:37:15.823Z,99630.83
2018-12-22T22:39:47.554Z,99626.91
2018-12-22T22:42:17.444Z,99531.13
2018-12-22T22:44:48.730Z,99625.09
2018-12-22T22:47:19.233Z,99629.83
2018-12-22T22:49:49.154Z,99621.28
2018-12-22T22:52:19.898Z,99626.73
2018-12-22T22:54:51.910Z,99627.81
2018-12-22T22:57:21.946Z,99635.16
2018-12-22T22:59:52.287Z,99634.05
2018-12-22T23:02:22.783Z,99638.47
2018-12-22T23:04:54.585Z,99647.80
2018-12-22T23:07:25.482Z,99649.83
2018-12-22T23:09:56.166Z,99653.03
2018-12-22T23:12:25.996Z,99655.77
2018-12-22T23:14:55.590Z,99664.94
2018-12-22T23:17:27.337Z,99667.07
2018-12-22T23:19:58.237Z,99599.36
2018-12-22T23:22:29.337Z,99670.77
2018-12-22T23:24:59.237Z,99666.84
2018-12-22T23:27:30.837Z,99676.81
2018-12-22T23:30:03.684Z,99674.20
2018-12-22T23:32:35.254Z,99672.08
2018-12-22T23:35:08.411Z,99664.84
2018-12-22T23:37:38.473Z,99659.81
2018-12-22T23:40:11.073Z,99662.14
2018-12-22T23:42:43.966Z,99671.67
2018-12-22T23:45:15.565Z,99672.15
2018-12-22T23:47:47.775Z,99675.69
2018-12-22T23:50:17.718Z,99674.08
2018-12-22T23:52:49.550Z,99671.36
2018-12-22T23:55:20.154Z,99677.11
2018-12-22T23:57:51.334Z,99677.44
